Estación de La Unión Norte
Ultimos registro cada 15 minutos 66
| N° | Estación | Fecha / Hora | Temperatura | Humedad | Lluvia | Velocidad | Dirección | Radiación | Presion |
| 66 | La Unión Norte | 03-05-2026 16:15 | 13,9 | 88,3 | 0 | 0 | 1 | 100,6 | 1009 |
| 65 | La Unión Norte | 03-05-2026 16:00 | 14 | 87,5 | 0 | 0 | 1 | 76,9 | 1008,9 |
| 64 | La Unión Norte | 03-05-2026 15:45 | 14,3 | 85,7 | 0 | 0 | 355 | 74,4 | 1008,7 |
| 63 | La Unión Norte | 03-05-2026 15:30 | 15,1 | 84,5 | 0 | 0 | 352 | 106,9 | 1008,5 |
| 62 | La Unión Norte | 03-05-2026 15:15 | 14,9 | 84,8 | 0 | 0 | 354 | 95,6 | 1008,2 |
| 61 | La Unión Norte | 03-05-2026 15:00 | 14,7 | 86,1 | 0 | 0 | 0 | 114,4 | 1008 |
| 60 | La Unión Norte | 03-05-2026 14:45 | 14,4 | 85,5 | 0 | 0 | 0 | 88,1 | 1008,1 |
| 59 | La Unión Norte | 03-05-2026 14:30 | 16,2 | 81,1 | 0 | 0 | 358 | 151,9 | 1008,1 |
| 58 | La Unión Norte | 03-05-2026 14:15 | 16,7 | 81,7 | 0 | 0 | 355 | 548,1 | 1007,8 |
| 57 | La Unión Norte | 03-05-2026 14:00 | 15 | 85,6 | 0 | 0 | 354 | 238,1 | 1008,2 |
| 56 | La Unión Norte | 03-05-2026 13:45 | 15,5 | 88 | 0 | 0 | 333 | 340,6 | 1008,1 |
| 55 | La Unión Norte | 03-05-2026 13:30 | 13,3 | 90,1 | 0 | 0 | 331 | 158,1 | 1008,8 |
| 54 | La Unión Norte | 03-05-2026 13:15 | 12,7 | 90,6 | 0 | 0 | 350 | 145,6 | 1008,6 |
| 53 | La Unión Norte | 03-05-2026 13:00 | 12,3 | 89,5 | 0 | 0 | 354 | 95,6 | 1008,7 |
| 52 | La Unión Norte | 03-05-2026 12:45 | 12,3 | 88 | 0 | 0 | 355 | 64,4 | 1008,8 |
| 51 | La Unión Norte | 03-05-2026 12:30 | 12,4 | 87,8 | 0 | 0 | 354 | 88,1 | 1008,9 |
| 50 | La Unión Norte | 03-05-2026 12:15 | 12,4 | 88,5 | 0 | 0 | 354 | 89,4 | 1008,8 |
| 49 | La Unión Norte | 03-05-2026 12:00 | 12,4 | 88,1 | 0 | 0 | 355 | 138,1 | 1008,8 |
| 48 | La Unión Norte | 03-05-2026 11:45 | 12,3 | 88,6 | 0 | 0 | 358 | 128,1 | 1008,8 |
| 47 | La Unión Norte | 03-05-2026 11:30 | 12 | 89,8 | 0 | 0 | 355 | 178,1 | 1008,6 |
| 46 | La Unión Norte | 03-05-2026 11:15 | 11,5 | 91,5 | 0 | 0 | 6 | 131,9 | 1008,7 |
| 45 | La Unión Norte | 03-05-2026 11:00 | 10,7 | 92 | 0 | 0 | 6 | 86,9 | 1008,8 |
| 44 | La Unión Norte | 03-05-2026 10:45 | 10,7 | 92,1 | 0 | 0 | 13 | 38,1 | 1009 |
| 43 | La Unión Norte | 03-05-2026 10:30 | 10,5 | 92,8 | 0 | 0 | 10 | 70,6 | 1008,9 |
| 42 | La Unión Norte | 03-05-2026 10:15 | 9,8 | 93,2 | 0 | 0 | 8 | 70,6 | 1008,9 |
| 41 | La Unión Norte | 03-05-2026 10:00 | 9,7 | 93,3 | 0 | 0 | 4 | 30,6 | 1008,8 |
| 40 | La Unión Norte | 03-05-2026 09:45 | 9,6 | 93,1 | 0 | 0 | 4 | 43,1 | 1008,9 |
| 39 | La Unión Norte | 03-05-2026 09:30 | 9,5 | 92,7 | 0 | 0 | 14 | 38,1 | 1009,1 |
| 38 | La Unión Norte | 03-05-2026 09:15 | 9,7 | 92,2 | 0 | 0 | 17 | 33,1 | 1008,9 |
| 37 | La Unión Norte | 03-05-2026 09:00 | 9,6 | 91,9 | 0 | 0 | 0 | 36,9 | 1009 |
| 36 | La Unión Norte | 03-05-2026 08:45 | 9,4 | 91,3 | 0 | 0 | 357 | 25,6 | 1008,9 |
| 35 | La Unión Norte | 03-05-2026 08:30 | 9,3 | 90,7 | 0 | 0 | 0 | 16,9 | 1009 |
| 34 | La Unión Norte | 03-05-2026 08:15 | 9,1 | 91 | 0 | 0 | 1 | 6,9 | 1008,9 |
| 33 | La Unión Norte | 03-05-2026 08:00 | 8,9 | 90,8 | 0 | 0 | 351 | 1,9 | 1008,5 |
| 32 | La Unión Norte | 03-05-2026 07:45 | 8,7 | 90,4 | 0 | 0 | 352 | 0,6 | 1008,4 |
| 31 | La Unión Norte | 03-05-2026 07:30 | 8,7 | 90,1 | 0 | 0 | 347 | 0,6 | 1008,2 |
| 30 | La Unión Norte | 03-05-2026 07:15 | 8,6 | 89,6 | 0 | 0 | 358 | 0,6 | 1008,4 |
| 29 | La Unión Norte | 03-05-2026 07:00 | 8,5 | 89,3 | 0,2 | 0 | 358 | 0,6 | 1008,2 |
| 28 | La Unión Norte | 03-05-2026 06:45 | 8,4 | 87,5 | 0 | 0 | 351 | 0,6 | 1008,3 |
| 27 | La Unión Norte | 03-05-2026 06:30 | 8,7 | 84,4 | 0,2 | 0 | 8 | 0,6 | 1008,1 |
| 26 | La Unión Norte | 03-05-2026 06:15 | 9 | 81,1 | 0 | 0 | 358 | 0,6 | 1008,2 |
| 25 | La Unión Norte | 03-05-2026 06:00 | 9,3 | 78 | 0 | 0 | 358 | 0,6 | 1008,1 |
| 24 | La Unión Norte | 03-05-2026 05:45 | 9,4 | 76,7 | 0 | 0 | 357 | 0,6 | 1007,9 |
| 23 | La Unión Norte | 03-05-2026 05:30 | 9,9 | 71,8 | 0 | 0 | 0 | 0,6 | 1008 |
| 22 | La Unión Norte | 03-05-2026 05:15 | 10 | 69,5 | 0 | 0 | 358 | 0,6 | 1008 |
| 21 | La Unión Norte | 03-05-2026 05:00 | 9,9 | 69,8 | 0 | 0 | 1 | 0,6 | 1008,4 |
| 20 | La Unión Norte | 03-05-2026 04:45 | 9,8 | 71 | 0 | 0 | 358 | 0,6 | 1008,4 |
| 19 | La Unión Norte | 03-05-2026 04:30 | 9,9 | 69,5 | 0 | 0 | 8 | 0,6 | 1008,4 |
| 18 | La Unión Norte | 03-05-2026 04:15 | 9,5 | 75 | 0 | 0 | 13 | 0,6 | 1008,5 |
| 17 | La Unión Norte | 03-05-2026 04:00 | 9,4 | 78,4 | 0 | 0 | 4 | 0,6 | 1008,8 |
| 16 | La Unión Norte | 03-05-2026 03:45 | 9,5 | 78,1 | 0 | 0 | 8 | 0,6 | 1009,9 |
| 15 | La Unión Norte | 03-05-2026 03:30 | 9,2 | 82,2 | 0 | 0 | 6 | 0,6 | 1010,5 |
| 14 | La Unión Norte | 03-05-2026 03:15 | 8,7 | 84,5 | 0 | 0 | 345 | 0,6 | 1010,5 |
| 13 | La Unión Norte | 03-05-2026 03:00 | 8,4 | 84,8 | 0 | 0 | 337 | 0,6 | 1010,3 |
| 12 | La Unión Norte | 03-05-2026 02:45 | 8,4 | 85,4 | 0 | 0 | 336 | 0,6 | 1010,5 |
| 11 | La Unión Norte | 03-05-2026 02:30 | 8,3 | 85,7 | 0 | 0 | 336 | 0,6 | 1010,4 |
| 10 | La Unión Norte | 03-05-2026 02:15 | 8,3 | 88 | 0 | 0 | 319 | 0,6 | 1010,4 |
| 9 | La Unión Norte | 03-05-2026 02:00 | 6,8 | 91,7 | 0 | 0 | 300 | 0,6 | 1010,7 |
| 8 | La Unión Norte | 03-05-2026 01:45 | 6,4 | 91,8 | 0 | 0 | 298 | 0,6 | 1010,8 |
| 7 | La Unión Norte | 03-05-2026 01:30 | 6,3 | 91,8 | 0 | 0 | 298 | 0,6 | 1010,6 |
| 6 | La Unión Norte | 03-05-2026 01:15 | 6,3 | 91,8 | 0 | 0 | 293 | 0,6 | 1010,9 |
| 5 | La Unión Norte | 03-05-2026 01:00 | 5,9 | 92,6 | 0 | 0 | 272 | 0,6 | 1010,9 |
| 4 | La Unión Norte | 03-05-2026 00:45 | 6 | 92,5 | 0 | 0 | 272 | 0,6 | 1011,3 |
| 3 | La Unión Norte | 03-05-2026 00:30 | 5,7 | 93,1 | 0 | 0 | 271 | 0,6 | 1011,1 |
| 2 | La Unión Norte | 03-05-2026 00:15 | 5,9 | 93,7 | 0 | 0 | 256 | 0,6 | 1011,1 |
| 1 | La Unión Norte | 03-05-2026 00:00 | 4,8 | 94,7 | 0 | 0 | 256 | 0,6 | 1011,4 |